createdAt,value
2019-04-16T00:00:54.589Z,0.00
2019-04-16T00:01:54.603Z,0.00
2019-04-16T00:02:54.570Z,0.00
2019-04-16T00:03:54.893Z,0.00
2019-04-16T00:04:56.927Z,0.00
2019-04-16T00:05:58.455Z,0.00
2019-04-16T00:06:55.554Z,0.00
2019-04-16T00:07:54.528Z,0.00
2019-04-16T00:08:57.256Z,0.00
2019-04-16T00:09:54.521Z,0.00
2019-04-16T00:10:54.539Z,0.00
2019-04-16T00:11:54.524Z,0.00
2019-04-16T00:12:54.548Z,0.00
2019-04-16T00:13:54.898Z,0.00
2019-04-16T00:14:54.493Z,0.00
2019-04-16T00:15:54.497Z,0.00
2019-04-16T00:16:54.486Z,0.00
2019-04-16T00:17:54.512Z,0.00
2019-04-16T00:18:57.888Z,0.00
2019-04-16T00:19:55.452Z,0.00
2019-04-16T00:20:54.494Z,0.00
2019-04-16T00:21:54.548Z,0.00
2019-04-16T00:22:54.480Z,0.00
2019-04-16T00:23:54.487Z,0.00
2019-04-16T00:24:54.433Z,0.00
2019-04-16T00:25:55.518Z,0.00
2019-04-16T00:26:58.528Z,0.00
2019-04-16T00:27:59.534Z,0.00
2019-04-16T00:28:55.410Z,0.00
2019-04-16T00:29:54.634Z,0.00
2019-04-16T00:30:54.722Z,0.00
2019-04-16T00:31:54.453Z,0.00
2019-04-16T00:32:55.831Z,0.00
2019-04-16T00:33:54.424Z,0.00
2019-04-16T00:34:54.367Z,0.00
2019-04-16T00:35:54.357Z,0.00
2019-04-16T00:36:54.394Z,0.00
2019-04-16T00:37:54.453Z,0.00
2019-04-16T00:38:54.730Z,0.00
2019-04-16T00:39:56.185Z,0.00
2019-04-16T00:40:55.406Z,0.00
2019-04-16T00:41:54.403Z,0.00
2019-04-16T00:42:54.414Z,0.00
2019-04-16T00:43:54.422Z,0.00
2019-04-16T00:44:54.331Z,0.00
2019-04-16T00:45:54.335Z,0.00
2019-04-16T00:46:54.338Z,0.00
2019-04-16T00:47:54.347Z,0.00
2019-04-16T00:48:54.375Z,0.00
2019-04-16T00:49:57.552Z,0.00
2019-04-16T00:50:55.392Z,0.00
2019-04-16T00:51:54.310Z,0.00
2019-04-16T00:52:54.468Z,0.00
2019-04-16T00:53:54.312Z,0.00
2019-04-16T00:54:54.474Z,0.00
2019-04-16T00:55:54.306Z,0.00
2019-04-16T00:56:54.278Z,0.00
2019-04-16T00:57:54.318Z,0.00
2019-04-16T00:58:54.256Z,0.00
2019-04-16T00:59:56.313Z,0.00
2019-04-16T01:00:55.264Z,0.00
2019-04-16T01:01:54.327Z,0.00
2019-04-16T01:02:54.226Z,0.00
2019-04-16T01:03:54.275Z,0.00
2019-04-16T01:04:54.211Z,0.00
2019-04-16T01:05:54.239Z,0.00
2019-04-16T01:06:54.210Z,0.00
2019-04-16T01:07:54.223Z,0.00
2019-04-16T01:08:55.187Z,0.00
2019-04-16T01:09:55.175Z,0.00
2019-04-16T01:10:54.168Z,0.00
2019-04-16T01:11:54.380Z,0.00
2019-04-16T01:12:54.151Z,0.00
2019-04-16T01:13:55.716Z,0.00
2019-04-16T01:14:58.910Z,0.00
2019-04-16T01:15:56.142Z,0.00
2019-04-16T01:16:54.136Z,0.00
2019-04-16T01:17:54.220Z,0.00
2019-04-16T01:18:54.119Z,0.00
2019-04-16T01:19:54.161Z,0.00
2019-04-16T01:20:54.167Z,0.00
2019-04-16T01:21:54.097Z,0.00
2019-04-16T01:22:54.111Z,0.00
2019-04-16T01:23:54.076Z,0.00
2019-04-16T01:24:54.150Z,0.00
2019-04-16T01:25:55.538Z,0.00
2019-04-16T01:26:55.474Z,0.00
2019-04-16T01:27:59.865Z,0.00
2019-04-16T01:28:55.041Z,0.00
2019-04-16T01:29:54.032Z,0.00
2019-04-16T01:30:54.029Z,0.00
2019-04-16T01:31:54.040Z,0.00
2019-04-16T01:32:54.019Z,0.00
2019-04-16T01:33:54.018Z,0.00
2019-04-16T01:34:54.161Z,0.00
2019-04-16T01:35:53.991Z,0.00
2019-04-16T01:36:54.896Z,0.00
2019-04-16T01:37:56.830Z,0.00
2019-04-16T01:39:13.387Z,0.00
2019-04-16T01:39:55.978Z,0.00
2019-04-16T01:40:54.019Z,0.00
2019-04-16T01:41:53.974Z,0.00
2019-04-16T01:42:54.683Z,0.00
2019-04-16T01:43:57.184Z,0.00
2019-04-16T01:44:53.978Z,0.00
2019-04-16T01:45:53.947Z,0.00
2019-04-16T01:46:53.939Z,0.00
2019-04-16T01:47:53.940Z,0.00
2019-04-16T01:48:53.924Z,0.00
2019-04-16T01:49:53.921Z,0.00
2019-04-16T01:50:53.898Z,0.00
2019-04-16T01:51:53.913Z,0.00
2019-04-16T01:52:53.893Z,0.00
2019-04-16T01:53:53.888Z,0.00
2019-04-16T01:54:54.834Z,0.00
2019-04-16T01:55:56.996Z,0.00
2019-04-16T01:56:59.499Z,0.00
2019-04-16T01:57:54.863Z,0.00
2019-04-16T01:58:53.842Z,0.00
2019-04-16T01:59:53.844Z,0.00
2019-04-16T02:00:53.870Z,0.00
2019-04-16T02:01:53.823Z,0.00
2019-04-16T02:02:53.828Z,0.00
2019-04-16T02:03:53.807Z,0.00
2019-04-16T02:04:53.808Z,0.00
2019-04-16T02:05:54.980Z,0.00
2019-04-16T02:06:57.257Z,0.00
2019-04-16T02:07:56.337Z,0.00
2019-04-16T02:08:54.771Z,0.00
2019-04-16T02:09:53.811Z,0.00
2019-04-16T02:10:53.753Z,0.00
2019-04-16T02:11:53.804Z,0.00
2019-04-16T02:12:54.745Z,0.00
2019-04-16T02:13:53.744Z,0.00
2019-04-16T02:14:53.786Z,0.00
2019-04-16T02:15:54.396Z,0.00
2019-04-16T02:16:55.980Z,0.00
2019-04-16T02:17:55.383Z,0.00
2019-04-16T02:18:54.720Z,0.00
2019-04-16T02:19:53.695Z,0.00
2019-04-16T02:20:53.676Z,0.00
2019-04-16T02:21:53.701Z,0.00
2019-04-16T02:22:53.686Z,0.00
2019-04-16T02:23:53.651Z,0.00
2019-04-16T02:24:53.659Z,0.00
2019-04-16T02:25:53.632Z,0.00
2019-04-16T02:26:54.861Z,0.00
2019-04-16T02:27:56.988Z,0.00
2019-04-16T02:28:53.616Z,0.00
2019-04-16T02:29:53.867Z,0.00
2019-04-16T02:30:54.603Z,0.00
2019-04-16T02:31:53.670Z,0.00
2019-04-16T02:32:53.595Z,0.00
2019-04-16T02:33:53.580Z,0.00
2019-04-16T02:34:53.577Z,0.00
2019-04-16T02:35:53.558Z,0.00
2019-04-16T02:37:00.740Z,0.00
2019-04-16T02:37:54.582Z,0.00
2019-04-16T02:38:53.819Z,0.00
2019-04-16T02:39:53.532Z,0.00
2019-04-16T02:40:53.576Z,0.00
2019-04-16T02:41:58.232Z,0.00
2019-04-16T02:42:55.515Z,0.00
2019-04-16T02:43:53.500Z,0.00
2019-04-16T02:44:54.498Z,0.00
2019-04-16T02:45:58.067Z,0.00
2019-04-16T02:46:54.473Z,0.00
2019-04-16T02:47:53.470Z,0.00
2019-04-16T02:48:53.453Z,0.00
2019-04-16T02:49:56.993Z,0.00
2019-04-16T02:50:54.461Z,0.00
2019-04-16T02:51:53.464Z,0.00
2019-04-16T02:52:53.441Z,0.00
2019-04-16T02:53:54.402Z,0.00
2019-04-16T02:54:54.482Z,0.00
2019-04-16T02:55:53.412Z,0.00
2019-04-16T02:56:53.426Z,0.00
2019-04-16T02:57:59.607Z,0.00
2019-04-16T02:58:54.376Z,0.00
2019-04-16T02:59:54.420Z,0.00
2019-04-16T03:00:53.399Z,0.00
2019-04-16T03:01:53.399Z,0.00
2019-04-16T03:02:53.882Z,0.00
2019-04-16T03:03:56.207Z,0.00
2019-04-16T03:04:58.203Z,0.00
2019-04-16T03:05:54.361Z,0.00
2019-04-16T03:06:53.387Z,0.00
2019-04-16T03:07:53.350Z,0.00
2019-04-16T03:08:53.336Z,0.00
2019-04-16T03:10:01.117Z,0.00
2019-04-16T03:10:55.324Z,0.00
2019-04-16T03:11:53.333Z,0.00
2019-04-16T03:12:53.318Z,0.00
2019-04-16T03:13:58.306Z,0.00
2019-04-16T03:14:54.355Z,0.00
2019-04-16T03:15:53.293Z,0.00
2019-04-16T03:16:53.369Z,0.00
2019-04-16T03:17:53.280Z,0.00
2019-04-16T03:18:53.289Z,0.00
2019-04-16T03:19:53.321Z,0.00
2019-04-16T03:20:55.802Z,0.00
2019-04-16T03:21:55.709Z,0.00
2019-04-16T03:22:53.246Z,0.00
2019-04-16T03:23:53.335Z,0.00
2019-04-16T03:24:53.258Z,0.00
2019-04-16T03:25:53.228Z,0.00
2019-04-16T03:26:53.215Z,0.00
2019-04-16T03:27:54.452Z,0.00
2019-04-16T03:28:55.600Z,0.00
2019-04-16T03:29:54.190Z,0.00
2019-04-16T03:30:53.196Z,0.00
2019-04-16T03:31:57.894Z,0.00
2019-04-16T03:32:55.212Z,0.00
2019-04-16T03:33:53.163Z,0.00
2019-04-16T03:34:54.086Z,0.00
2019-04-16T03:35:57.566Z,0.00
2019-04-16T03:36:54.213Z,0.00
2019-04-16T03:37:53.140Z,0.00
2019-04-16T03:38:53.131Z,0.00
2019-04-16T03:39:53.497Z,0.00
2019-04-16T03:40:55.933Z,0.00
2019-04-16T03:41:56.158Z,0.00
2019-04-16T03:42:58.950Z,0.00
2019-04-16T03:43:54.121Z,0.00
2019-04-16T03:44:53.126Z,0.00
2019-04-16T03:45:53.166Z,0.00
2019-04-16T03:46:53.112Z,0.00
2019-04-16T03:47:53.057Z,0.00
2019-04-16T03:48:56.186Z,0.00
2019-04-16T03:49:53.060Z,0.00
2019-04-16T03:50:53.112Z,0.00
2019-04-16T03:51:53.049Z,0.00
2019-04-16T03:52:53.045Z,0.00
2019-04-16T03:53:53.039Z,0.00
2019-04-16T03:54:54.136Z,0.00
2019-04-16T03:55:57.919Z,0.00
2019-04-16T03:56:54.089Z,0.00
2019-04-16T03:57:53.010Z,0.00
2019-04-16T03:58:53.035Z,0.00
2019-04-16T03:59:53.024Z,0.00
2019-04-16T04:00:52.990Z,0.00
2019-04-16T04:01:53.039Z,0.00
2019-04-16T04:02:55.079Z,0.00
2019-04-16T04:03:57.080Z,0.00
2019-04-16T04:04:53.970Z,0.00
2019-04-16T04:05:52.950Z,0.00
2019-04-16T04:06:52.950Z,0.00
2019-04-16T04:07:55.231Z,0.00
2019-04-16T04:08:53.930Z,0.00
2019-04-16T04:09:54.527Z,0.00
2019-04-16T04:10:53.932Z,4.00
2019-04-16T04:11:52.955Z,4.00
2019-04-16T04:12:52.923Z,0.00
2019-04-16T04:13:52.960Z,0.00
2019-04-16T04:14:54.301Z,4.00
2019-04-16T04:15:55.196Z,0.00
2019-04-16T04:16:53.909Z,4.00
2019-04-16T04:17:52.885Z,4.00
2019-04-16T04:18:53.010Z,4.00
2019-04-16T04:19:52.861Z,4.00
2019-04-16T04:20:52.855Z,4.00
2019-04-16T04:21:53.755Z,8.00
2019-04-16T04:22:56.809Z,4.00
2019-04-16T04:23:53.837Z,8.00
2019-04-16T04:24:52.833Z,8.00
2019-04-16T04:25:52.830Z,12.00
2019-04-16T04:26:52.805Z,12.00
2019-04-16T04:27:52.814Z,12.00
2019-04-16T04:28:52.903Z,12.00
2019-04-16T04:29:53.682Z,20.00
2019-04-16T04:30:53.795Z,20.00
2019-04-16T04:31:52.787Z,20.00
2019-04-16T04:32:52.777Z,24.00
2019-04-16T04:33:52.778Z,24.00
2019-04-16T04:34:52.789Z,28.00
2019-04-16T04:35:52.755Z,32.00
2019-04-16T04:36:52.747Z,32.00
2019-04-16T04:37:52.748Z,36.00
2019-04-16T04:38:52.749Z,36.00
2019-04-16T04:39:52.740Z,44.00
2019-04-16T04:40:52.728Z,44.00
2019-04-16T04:41:56.251Z,52.00
2019-04-16T04:42:52.716Z,56.00
2019-04-16T04:43:52.706Z,56.00
2019-04-16T04:44:52.714Z,64.00
2019-04-16T04:45:52.708Z,72.00
2019-04-16T04:46:52.752Z,80.00
2019-04-16T04:47:52.698Z,88.00
2019-04-16T04:48:55.731Z,100.00
2019-04-16T04:49:54.684Z,116.00
2019-04-16T04:50:52.791Z,128.00
2019-04-16T04:51:52.698Z,140.00
2019-04-16T04:52:52.659Z,152.00
2019-04-16T04:53:52.667Z,168.00
2019-04-16T04:54:54.116Z,188.00
2019-04-16T04:55:54.435Z,204.00
2019-04-16T04:56:56.299Z,220.00
2019-04-16T04:57:53.644Z,240.00
2019-04-16T04:58:52.646Z,260.00
2019-04-16T04:59:52.624Z,284.00
2019-04-16T05:00:52.682Z,300.00
2019-04-16T05:01:52.621Z,324.00
2019-04-16T05:02:52.596Z,356.00
2019-04-16T05:03:52.589Z,380.00
2019-04-16T05:04:53.262Z,408.00
2019-04-16T05:05:53.373Z,436.00
2019-04-16T05:06:54.377Z,464.00
2019-04-16T05:07:53.560Z,492.00
2019-04-16T05:08:52.559Z,512.00
2019-04-16T05:09:52.566Z,540.00
2019-04-16T05:10:58.973Z,568.00
2019-04-16T05:11:54.619Z,592.00
2019-04-16T05:12:53.558Z,624.00
2019-04-16T05:13:56.383Z,648.00
2019-04-16T05:14:57.141Z,672.00
2019-04-16T05:15:53.518Z,700.00
2019-04-16T05:16:52.532Z,732.00
2019-04-16T05:17:52.690Z,760.00
2019-04-16T05:18:52.506Z,796.00
2019-04-16T05:19:52.500Z,816.00
2019-04-16T05:20:52.476Z,848.00
2019-04-16T05:21:52.469Z,872.00
2019-04-16T05:22:53.593Z,904.00
2019-04-16T05:23:57.181Z,932.00
2019-04-16T05:24:53.454Z,960.00
2019-04-16T05:25:52.453Z,988.00
2019-04-16T05:26:52.448Z,1016.00
2019-04-16T05:27:52.429Z,1036.00
2019-04-16T05:28:52.430Z,1048.00
2019-04-16T05:29:52.405Z,1072.00
2019-04-16T05:30:53.162Z,1092.00
2019-04-16T05:31:54.498Z,1108.00
2019-04-16T05:32:52.428Z,1120.00
2019-04-16T05:33:52.571Z,1136.00
2019-04-16T05:34:52.404Z,1152.00
2019-04-16T05:35:52.407Z,1168.00
2019-04-16T05:36:52.410Z,1188.00
2019-04-16T05:37:52.394Z,1200.00
2019-04-16T05:38:55.543Z,1216.00
2019-04-16T05:39:53.402Z,1232.00
2019-04-16T05:40:52.363Z,1248.00
2019-04-16T05:41:52.979Z,1240.00
2019-04-16T05:42:58.270Z,1216.00
2019-04-16T05:43:53.481Z,1280.00
2019-04-16T05:44:52.332Z,1288.00
2019-04-16T05:45:52.350Z,1296.00
2019-04-16T05:46:52.331Z,1304.00
2019-04-16T05:47:52.314Z,1320.00
2019-04-16T05:48:53.952Z,1336.00
2019-04-16T05:49:54.467Z,1344.00
2019-04-16T05:50:53.340Z,1356.00
2019-04-16T05:51:52.312Z,1360.00
2019-04-16T05:52:52.273Z,1368.00
2019-04-16T05:53:52.283Z,1368.00
2019-04-16T05:54:52.265Z,1372.00
2019-04-16T05:55:52.255Z,1380.00
2019-04-16T05:56:54.840Z,1372.00
2019-04-16T05:57:57.906Z,1384.00
2019-04-16T05:58:53.222Z,1392.00
2019-04-16T05:59:52.243Z,1388.00
2019-04-16T06:00:52.207Z,1392.00
2019-04-16T06:01:52.204Z,1196.00
2019-04-16T06:02:52.206Z,1032.00
2019-04-16T06:03:53.413Z,1372.00
2019-04-16T06:04:55.795Z,1392.00
2019-04-16T06:05:53.182Z,1388.00
2019-04-16T06:06:52.224Z,1380.00
2019-04-16T06:07:52.202Z,1380.00
2019-04-16T06:08:52.190Z,1372.00
2019-04-16T06:09:52.161Z,1368.00
2019-04-16T06:10:52.186Z,1364.00
2019-04-16T06:11:52.144Z,1360.00
2019-04-16T06:12:52.140Z,1356.00
2019-04-16T06:13:52.126Z,1348.00
2019-04-16T06:14:53.968Z,1352.00
2019-04-16T06:15:53.985Z,1344.00
2019-04-16T06:16:53.370Z,1340.00
2019-04-16T06:17:53.117Z,1340.00
2019-04-16T06:18:52.106Z,1332.00
2019-04-16T06:19:52.096Z,1324.00
2019-04-16T06:20:52.900Z,1316.00
2019-04-16T06:21:56.450Z,1308.00
2019-04-16T06:22:53.077Z,1300.00
2019-04-16T06:23:52.070Z,1296.00
2019-04-16T06:24:52.052Z,1292.00
2019-04-16T06:25:52.057Z,1288.00
2019-04-16T06:26:52.051Z,1288.00
2019-04-16T06:27:52.027Z,1280.00
2019-04-16T06:28:55.069Z,1284.00
2019-04-16T06:29:53.011Z,1280.00
2019-04-16T06:30:52.011Z,1280.00
2019-04-16T06:31:51.996Z,1284.00
2019-04-16T06:32:51.993Z,1276.00
2019-04-16T06:33:51.987Z,1268.00
2019-04-16T06:34:52.078Z,1260.00
2019-04-16T06:35:51.986Z,1256.00
2019-04-16T06:36:51.955Z,1248.00
2019-04-16T06:37:51.946Z,1240.00
2019-04-16T06:38:51.942Z,1236.00
2019-04-16T06:39:52.099Z,1232.00
2019-04-16T06:40:51.947Z,1232.00
2019-04-16T06:41:52.683Z,1228.00
2019-04-16T06:42:54.253Z,1228.00
2019-04-16T06:43:58.337Z,1224.00
2019-04-16T06:44:53.005Z,1220.00
2019-04-16T06:45:51.883Z,1220.00
2019-04-16T06:46:51.911Z,1216.00
2019-04-16T06:47:51.880Z,1208.00
2019-04-16T06:48:51.886Z,1184.00
2019-04-16T06:49:52.165Z,1176.00
2019-04-16T06:50:52.893Z,1176.00
2019-04-16T06:51:51.875Z,1172.00
2019-04-16T06:52:51.867Z,1160.00
2019-04-16T06:53:53.965Z,1176.00
2019-04-16T06:54:51.859Z,1176.00
2019-04-16T06:55:51.877Z,1172.00
2019-04-16T06:56:51.942Z,1168.00
2019-04-16T06:57:51.865Z,1168.00
2019-04-16T06:58:57.199Z,1164.00
2019-04-16T06:59:52.849Z,1160.00
2019-04-16T07:00:51.845Z,1164.00
2019-04-16T07:01:51.950Z,1160.00
2019-04-16T07:03:02.216Z,1168.00
2019-04-16T07:03:58.228Z,1192.00
2019-04-16T07:04:52.827Z,1192.00
2019-04-16T07:05:51.797Z,1212.00
2019-04-16T07:06:51.792Z,1232.00
2019-04-16T07:07:51.813Z,1244.00
2019-04-16T07:08:51.779Z,1268.00
2019-04-16T07:09:56.752Z,1268.00
2019-04-16T07:10:52.767Z,1276.00
2019-04-16T07:11:54.737Z,1268.00
2019-04-16T07:12:52.893Z,1312.00
2019-04-16T07:13:51.759Z,1368.00
2019-04-16T07:14:51.726Z,1416.00
2019-04-16T07:15:56.412Z,1468.00
2019-04-16T07:16:52.731Z,1524.00
2019-04-16T07:17:51.708Z,1600.00
2019-04-16T07:18:51.712Z,1700.00
2019-04-16T07:19:51.691Z,1816.00
2019-04-16T07:20:51.724Z,1952.00
2019-04-16T07:21:51.728Z,2056.00
2019-04-16T07:22:53.008Z,2120.00
2019-04-16T07:23:57.005Z,2168.00
2019-04-16T07:24:53.725Z,2176.00
2019-04-16T07:25:51.787Z,2164.00
2019-04-16T07:26:51.779Z,2148.00
2019-04-16T07:27:53.724Z,2096.00
2019-04-16T07:28:58.565Z,2000.00
2019-04-16T07:29:52.986Z,1816.00
2019-04-16T07:30:51.726Z,1820.00
2019-04-16T07:31:53.265Z,1748.00
2019-04-16T07:32:52.942Z,1720.00
2019-04-16T07:33:51.667Z,1736.00
2019-04-16T07:34:51.627Z,1756.00
2019-04-16T07:35:52.195Z,1736.00
2019-04-16T07:36:53.589Z,1776.00
2019-04-16T07:37:51.662Z,1744.00
2019-04-16T07:38:51.664Z,1664.00
2019-04-16T07:39:51.671Z,1616.00
2019-04-16T07:40:51.566Z,1496.00
2019-04-16T07:41:51.566Z,1636.00
2019-04-16T07:42:52.432Z,1764.00
2019-04-16T07:43:53.723Z,1792.00
2019-04-16T07:44:54.787Z,1892.00
2019-04-16T07:45:51.571Z,1996.00
2019-04-16T07:46:51.519Z,2052.00
2019-04-16T07:47:52.404Z,2016.00
2019-04-16T07:48:54.790Z,2092.00
2019-04-16T07:49:52.499Z,2156.00
2019-04-16T07:50:53.045Z,2136.00
2019-04-16T07:51:52.491Z,2140.00
2019-04-16T07:52:51.473Z,2132.00
2019-04-16T07:53:51.464Z,2072.00
2019-04-16T07:54:51.474Z,1984.00
2019-04-16T07:55:51.462Z,2068.00
2019-04-16T07:56:51.453Z,2088.00
2019-04-16T07:57:51.431Z,1980.00
2019-04-16T07:58:51.440Z,2052.00
2019-04-16T07:59:51.435Z,1928.00
2019-04-16T08:00:51.431Z,2076.00
2019-04-16T08:01:51.439Z,2100.00
2019-04-16T08:02:53.772Z,2284.00
2019-04-16T08:03:51.418Z,2436.00
2019-04-16T08:04:51.417Z,2536.00
2019-04-16T08:05:51.415Z,2620.00
2019-04-16T08:06:51.400Z,2712.00
2019-04-16T08:07:52.783Z,2740.00
2019-04-16T08:08:53.918Z,2808.00
2019-04-16T08:09:52.412Z,2272.00
2019-04-16T08:10:51.390Z,2812.00
2019-04-16T08:11:51.363Z,2788.00
2019-04-16T08:12:51.394Z,2640.00
2019-04-16T08:13:51.460Z,2720.00
2019-04-16T08:14:51.343Z,2696.00
2019-04-16T08:15:51.360Z,2616.00
2019-04-16T08:16:51.326Z,2620.00
2019-04-16T08:17:51.325Z,2640.00
2019-04-16T08:18:51.356Z,2488.00
2019-04-16T08:19:51.298Z,2016.00
2019-04-16T08:21:01.259Z,2276.00
2019-04-16T08:21:53.596Z,2140.00
2019-04-16T08:22:51.275Z,2472.00
2019-04-16T08:23:52.867Z,1824.00
2019-04-16T08:24:57.590Z,1904.00
2019-04-16T08:26:01.998Z,2368.00
2019-04-16T08:26:53.249Z,2544.00
2019-04-16T08:27:53.980Z,2568.00
2019-04-16T08:28:51.234Z,2504.00
2019-04-16T08:29:51.244Z,2504.00
2019-04-16T08:30:51.219Z,2304.00
2019-04-16T08:31:51.208Z,2460.00
2019-04-16T08:32:51.231Z,2624.00
2019-04-16T08:33:51.200Z,2740.00
2019-04-16T08:34:51.319Z,2792.00
2019-04-16T08:35:51.187Z,2764.00
2019-04-16T08:36:51.170Z,2996.00
2019-04-16T08:37:51.154Z,3104.00
2019-04-16T08:38:51.161Z,3316.00
2019-04-16T08:39:51.158Z,3440.00
2019-04-16T08:40:51.150Z,3856.00
2019-04-16T08:41:52.528Z,3892.00
2019-04-16T08:42:56.959Z,3684.00
2019-04-16T08:43:52.122Z,3472.00
2019-04-16T08:44:51.098Z,4356.00
2019-04-16T08:45:51.176Z,4056.00
2019-04-16T08:46:51.101Z,4864.00
2019-04-16T08:47:51.080Z,6192.00
2019-04-16T08:48:54.113Z,6784.00
2019-04-16T08:49:54.118Z,6912.00
2019-04-16T08:50:52.145Z,10800.00
2019-04-16T08:51:51.051Z,28864.00
2019-04-16T08:52:51.047Z,49504.00
2019-04-16T08:53:51.043Z,60128.00
2019-04-16T08:54:54.526Z,70208.00
2019-04-16T08:55:51.075Z,90848.00
2019-04-16T08:56:51.019Z,91552.00
2019-04-16T08:57:51.001Z,80928.00
2019-04-16T08:58:50.998Z,64640.00
2019-04-16T08:59:50.987Z,52576.00
2019-04-16T09:00:50.983Z,49984.00
2019-04-16T09:01:51.381Z,47200.00
2019-04-16T09:02:51.963Z,45952.00
2019-04-16T09:03:50.977Z,42144.00
2019-04-16T09:04:50.954Z,41760.00
2019-04-16T09:05:50.950Z,26048.00
2019-04-16T09:06:50.951Z,31648.00
2019-04-16T09:07:51.679Z,32160.00
2019-04-16T09:08:53.045Z,22496.00
2019-04-16T09:09:50.921Z,21408.00
2019-04-16T09:10:50.999Z,15936.00
2019-04-16T09:11:50.912Z,17632.00
2019-04-16T09:13:02.293Z,21888.00
2019-04-16T09:13:52.919Z,30624.00
2019-04-16T09:14:54.926Z,18432.00
2019-04-16T09:15:52.902Z,23552.00
2019-04-16T09:16:50.882Z,26944.00
2019-04-16T09:17:50.891Z,20352.00
2019-04-16T09:18:50.897Z,27936.00
2019-04-16T09:19:50.864Z,17664.00
2019-04-16T09:20:50.857Z,19776.00
2019-04-16T09:21:50.865Z,28000.00
2019-04-16T09:22:53.812Z,17664.00
2019-04-16T09:23:51.849Z,27360.00
2019-04-16T09:24:50.835Z,16512.00
2019-04-16T09:25:50.824Z,10456.00
2019-04-16T09:26:52.667Z,19744.00
2019-04-16T09:27:51.834Z,30400.00
2019-04-16T09:28:50.799Z,23584.00
2019-04-16T09:29:50.794Z,27552.00
2019-04-16T09:30:50.790Z,21984.00
2019-04-16T09:31:55.061Z,18880.00
2019-04-16T09:32:52.774Z,25888.00
2019-04-16T09:33:50.764Z,25152.00
2019-04-16T09:34:50.852Z,24736.00
2019-04-16T09:35:50.744Z,18432.00
2019-04-16T09:36:50.734Z,16992.00
2019-04-16T09:37:50.751Z,23552.00
2019-04-16T09:38:50.714Z,12684.00
2019-04-16T09:39:50.710Z,10332.00
2019-04-16T09:40:50.722Z,23936.00
2019-04-16T09:41:50.693Z,12068.00
2019-04-16T09:42:50.881Z,18080.00
2019-04-16T09:43:53.796Z,9532.00
2019-04-16T09:44:51.670Z,11728.00
2019-04-16T09:45:50.691Z,9408.00
2019-04-16T09:46:52.085Z,11764.00
2019-04-16T09:47:51.668Z,14332.00
2019-04-16T09:48:50.682Z,9452.00
2019-04-16T09:49:50.657Z,22400.00
2019-04-16T09:50:50.644Z,12484.00
2019-04-16T09:51:51.238Z,6848.00
2019-04-16T09:52:52.467Z,5680.00
2019-04-16T09:53:51.635Z,5652.00
2019-04-16T09:54:50.617Z,4576.00
2019-04-16T09:55:51.265Z,4160.00
2019-04-16T09:56:50.698Z,3976.00
2019-04-16T09:57:50.590Z,3696.00
2019-04-16T09:58:50.596Z,3500.00
2019-04-16T09:59:50.574Z,3292.00
2019-04-16T10:00:50.568Z,3260.00
2019-04-16T10:01:50.559Z,3220.00
2019-04-16T10:02:50.921Z,3328.00
2019-04-16T10:03:53.546Z,3428.00
2019-04-16T10:04:50.576Z,3424.00
2019-04-16T10:05:50.591Z,3564.00
2019-04-16T10:06:50.556Z,3768.00
2019-04-16T10:07:50.532Z,4020.00
2019-04-16T10:08:50.537Z,4452.00
2019-04-16T10:09:51.393Z,4804.00
2019-04-16T10:10:51.562Z,4780.00
2019-04-16T10:11:50.561Z,5364.00
2019-04-16T10:12:50.536Z,5700.00
2019-04-16T10:13:50.535Z,6344.00
2019-04-16T10:14:50.513Z,8632.00
2019-04-16T10:15:50.469Z,14848.00
2019-04-16T10:16:50.479Z,18176.00
2019-04-16T10:17:50.514Z,20544.00
2019-04-16T10:18:50.536Z,21088.00
2019-04-16T10:19:50.507Z,20800.00
2019-04-16T10:20:50.502Z,22400.00
2019-04-16T10:21:54.255Z,30720.00
2019-04-16T10:22:50.545Z,31328.00
2019-04-16T10:23:50.525Z,36576.00
2019-04-16T10:24:50.514Z,45120.00
2019-04-16T10:25:50.546Z,42048.00
2019-04-16T10:26:50.534Z,42112.00
2019-04-16T10:27:50.495Z,37984.00
2019-04-16T10:28:50.507Z,29984.00
2019-04-16T10:29:50.608Z,40736.00
2019-04-16T10:30:50.505Z,51520.00
2019-04-16T10:31:50.477Z,42976.00
2019-04-16T10:32:50.484Z,41376.00
2019-04-16T10:33:50.459Z,37728.00
2019-04-16T10:34:50.472Z,33760.00
2019-04-16T10:35:50.526Z,47072.00
2019-04-16T10:36:50.424Z,31040.00
2019-04-16T10:37:50.442Z,32704.00
2019-04-16T10:38:50.446Z,26464.00
2019-04-16T10:39:50.406Z,25280.00
2019-04-16T10:40:50.439Z,25184.00
2019-04-16T10:41:50.413Z,14192.00
2019-04-16T10:42:50.386Z,9772.00
2019-04-16T10:43:50.423Z,6640.00
2019-04-16T10:44:50.438Z,5932.00
2019-04-16T10:45:50.358Z,5520.00
2019-04-16T10:46:50.393Z,5028.00
2019-04-16T10:47:50.357Z,4608.00
2019-04-16T10:48:50.393Z,4316.00
2019-04-16T10:49:50.408Z,3320.00
2019-04-16T10:50:50.364Z,3268.00
2019-04-16T10:51:50.442Z,3396.00
2019-04-16T10:52:54.337Z,3328.00
2019-04-16T10:53:52.570Z,3204.00
2019-04-16T10:54:50.337Z,3104.00
2019-04-16T10:55:50.347Z,2904.00
2019-04-16T10:56:50.329Z,3100.00
2019-04-16T10:57:50.316Z,2896.00
2019-04-16T10:58:50.301Z,2956.00
2019-04-16T10:59:50.365Z,3180.00
2019-04-16T11:00:51.302Z,3192.00
2019-04-16T11:01:50.283Z,3216.00
2019-04-16T11:02:50.305Z,3280.00
2019-04-16T11:03:50.256Z,3072.00
2019-04-16T11:04:50.260Z,3108.00
2019-04-16T11:05:50.258Z,3012.00
2019-04-16T11:06:50.249Z,2876.00
2019-04-16T11:07:50.253Z,2860.00
2019-04-16T11:08:50.261Z,2700.00
2019-04-16T11:09:50.299Z,2532.00
2019-04-16T11:10:50.218Z,2496.00
2019-04-16T11:11:50.256Z,2440.00
2019-04-16T11:12:50.221Z,2416.00
2019-04-16T11:13:59.823Z,2336.00
2019-04-16T11:14:52.227Z,2264.00
2019-04-16T11:15:50.199Z,2068.00
2019-04-16T11:16:50.232Z,2156.00
2019-04-16T11:17:50.192Z,2020.00
2019-04-16T11:18:50.222Z,2100.00
2019-04-16T11:19:52.648Z,2016.00
2019-04-16T11:20:51.208Z,1992.00
2019-04-16T11:21:50.208Z,2044.00
2019-04-16T11:22:50.203Z,2044.00
2019-04-16T11:23:50.160Z,2056.00
2019-04-16T11:24:50.184Z,2024.00
2019-04-16T11:25:50.122Z,2004.00
2019-04-16T11:26:50.201Z,1976.00
2019-04-16T11:27:50.147Z,1944.00
2019-04-16T11:28:50.176Z,1916.00
2019-04-16T11:29:50.134Z,1880.00
2019-04-16T11:30:50.154Z,1848.00
2019-04-16T11:31:50.222Z,1812.00
2019-04-16T11:32:53.197Z,1796.00
2019-04-16T11:33:50.095Z,1792.00
2019-04-16T11:34:50.149Z,1808.00
2019-04-16T11:35:52.820Z,1756.00
2019-04-16T11:36:51.084Z,1724.00
2019-04-16T11:37:50.122Z,1708.00
2019-04-16T11:38:50.088Z,1684.00
2019-04-16T11:39:50.050Z,1668.00
2019-04-16T11:40:50.087Z,1664.00
2019-04-16T11:41:50.055Z,1648.00
2019-04-16T11:42:50.057Z,1640.00
2019-04-16T11:43:50.044Z,1632.00
2019-04-16T11:44:50.476Z,1620.00
2019-04-16T11:45:51.037Z,1612.00
2019-04-16T11:46:50.026Z,1600.00
2019-04-16T11:47:50.009Z,1588.00
2019-04-16T11:48:50.444Z,1588.00
2019-04-16T11:49:50.969Z,1592.00
2019-04-16T11:50:49.981Z,1584.00
2019-04-16T11:51:49.968Z,1596.00
2019-04-16T11:52:49.999Z,1592.00
2019-04-16T11:53:49.970Z,1580.00
2019-04-16T11:54:49.968Z,1556.00
2019-04-16T11:55:49.942Z,1536.00
2019-04-16T11:56:49.986Z,1516.00
2019-04-16T11:57:49.927Z,1496.00
2019-04-16T11:58:50.002Z,1484.00
2019-04-16T11:59:49.958Z,1476.00
2019-04-16T12:00:49.923Z,1472.00
2019-04-16T12:01:49.913Z,1464.00
2019-04-16T12:02:50.935Z,1460.00
2019-04-16T12:03:49.901Z,1448.00
2019-04-16T12:04:49.915Z,1432.00
2019-04-16T12:05:49.868Z,1420.00
2019-04-16T12:06:49.903Z,1428.00
2019-04-16T12:07:49.904Z,1424.00
2019-04-16T12:08:50.852Z,1392.00
2019-04-16T12:09:49.832Z,1364.00
2019-04-16T12:10:49.831Z,1348.00
2019-04-16T12:11:49.839Z,1344.00
2019-04-16T12:12:49.809Z,1312.00
2019-04-16T12:13:49.804Z,1288.00
2019-04-16T12:14:49.842Z,1308.00
2019-04-16T12:15:49.816Z,1332.00
2019-04-16T12:16:50.800Z,1380.00
2019-04-16T12:17:49.807Z,1376.00
2019-04-16T12:18:49.760Z,1360.00
2019-04-16T12:19:49.748Z,1368.00
2019-04-16T12:20:49.782Z,1372.00
2019-04-16T12:21:49.738Z,1380.00
2019-04-16T12:22:49.771Z,1376.00
2019-04-16T12:23:49.771Z,1384.00
2019-04-16T12:24:49.715Z,1400.00
2019-04-16T12:25:49.710Z,1400.00
2019-04-16T12:26:49.732Z,1420.00
2019-04-16T12:27:49.743Z,1408.00
2019-04-16T12:28:49.684Z,1400.00
2019-04-16T12:29:49.737Z,1348.00